createdAt,value
2022-10-20T00:01:17.712Z,7.77
2022-10-20T00:03:45.955Z,7.88
2022-10-20T00:06:23.723Z,7.93
2022-10-20T00:08:50.793Z,7.92
2022-10-20T00:11:21.064Z,7.94
2022-10-20T00:13:50.279Z,7.99
2022-10-20T00:16:18.046Z,7.96
2022-10-20T00:18:45.120Z,7.94
2022-10-20T00:21:21.634Z,7.73
2022-10-20T00:23:48.387Z,7.64
2022-10-20T00:26:26.688Z,7.60
2022-10-20T00:28:54.680Z,7.57
2022-10-20T00:31:23.871Z,7.44
2022-10-20T00:33:50.640Z,7.51
2022-10-20T00:36:19.753Z,7.53
2022-10-20T00:38:47.187Z,7.59
2022-10-20T00:41:18.003Z,7.66
2022-10-20T00:43:46.439Z,7.73
2022-10-20T00:46:21.468Z,7.67
2022-10-20T00:49:00.620Z,7.67
2022-10-20T00:51:30.614Z,7.65
2022-10-20T00:54:23.114Z,7.70
2022-10-20T00:56:51.580Z,7.58
2022-10-20T00:59:22.779Z,7.54
2022-10-20T01:01:49.826Z,7.56
2022-10-20T01:04:17.539Z,7.57
2022-10-20T01:06:44.044Z,7.67
2022-10-20T01:09:11.001Z,7.50
2022-10-20T01:12:14.915Z,7.35
2022-10-20T01:15:00.145Z,7.40
2022-10-20T01:17:40.979Z,7.29
2022-10-20T01:20:31.926Z,7.33
2022-10-20T01:23:22.510Z,7.43
2022-10-20T01:26:19.206Z,7.53
2022-10-20T01:28:58.500Z,7.46
2022-10-20T01:31:57.639Z,7.28
2022-10-20T01:34:50.519Z,7.34
2022-10-20T01:37:49.065Z,7.41
2022-10-20T01:40:28.574Z,7.36
2022-10-20T01:43:01.744Z,7.33
2022-10-20T01:45:34.274Z,7.22
2022-10-20T01:48:06.527Z,7.29
2022-10-20T01:50:39.752Z,7.19
2022-10-20T01:53:07.166Z,7.30
2022-10-20T01:55:35.268Z,7.34
2022-10-20T01:58:11.861Z,7.38
2022-10-20T02:00:39.839Z,7.17
2022-10-20T02:03:43.138Z,7.33
2022-10-20T02:06:42.082Z,7.19
2022-10-20T02:09:17.895Z,7.26
2022-10-20T02:12:02.152Z,7.30
2022-10-20T02:14:29.797Z,7.32
2022-10-20T02:17:04.042Z,7.38
2022-10-20T02:19:38.335Z,7.36
2022-10-20T02:22:07.670Z,7.45
2022-10-20T02:24:40.510Z,7.48
2022-10-20T02:27:18.215Z,7.54
2022-10-20T02:29:54.638Z,7.64
2022-10-20T02:32:24.454Z,7.61
2022-10-20T02:34:51.220Z,7.62
2022-10-20T02:39:49.051Z,7.57
2022-10-20T02:42:17.161Z,7.60
2022-10-20T02:44:43.830Z,7.68
2022-10-20T02:47:10.388Z,7.75
2022-10-20T02:49:36.841Z,7.64
2022-10-20T02:52:03.410Z,7.60
2022-10-20T02:54:29.863Z,7.58
2022-10-20T02:56:56.375Z,7.57
2022-10-20T02:59:22.817Z,7.64
2022-10-20T03:01:51.115Z,7.64
2022-10-20T03:04:18.091Z,7.77
2022-10-20T03:06:44.805Z,7.86
2022-10-20T03:09:11.303Z,7.91
2022-10-20T03:11:37.751Z,7.96
2022-10-20T03:14:04.237Z,7.88
2022-10-20T03:16:30.686Z,7.86
2022-10-20T03:19:00.033Z,7.67
2022-10-20T03:21:29.937Z,7.62
2022-10-20T03:23:56.378Z,7.51
2022-10-20T03:26:22.806Z,7.47
2022-10-20T03:28:49.285Z,7.55
2022-10-20T03:31:15.829Z,7.57
2022-10-20T03:33:42.488Z,7.58
2022-10-20T03:36:09.639Z,7.60
2022-10-20T03:38:36.086Z,7.55
2022-10-20T03:41:03.179Z,7.73
2022-10-20T03:43:29.616Z,7.69
2022-10-20T03:46:05.831Z,7.54
2022-10-20T03:48:33.082Z,7.52
2022-10-20T03:51:01.943Z,7.49
2022-10-20T03:53:29.007Z,7.62
2022-10-20T03:55:55.630Z,7.73
2022-10-20T03:58:22.283Z,7.79
2022-10-20T04:00:49.692Z,7.73
2022-10-20T04:03:16.588Z,7.70
2022-10-20T04:05:43.045Z,7.69
2022-10-20T04:08:09.525Z,7.64
2022-10-20T04:10:36.297Z,7.65
2022-10-20T04:13:03.751Z,7.67
2022-10-20T04:15:30.715Z,7.71
2022-10-20T04:17:57.356Z,7.76
2022-10-20T04:20:24.054Z,7.68
2022-10-20T04:22:50.905Z,7.72
2022-10-20T04:25:18.133Z,7.79
2022-10-20T04:27:44.716Z,7.83
2022-10-20T04:30:11.782Z,7.91
2022-10-20T04:32:38.269Z,7.91
2022-10-20T04:35:05.488Z,8.02
2022-10-20T04:37:31.938Z,8.01
2022-10-20T04:39:58.507Z,8.14
2022-10-20T04:42:25.060Z,8.11
2022-10-20T04:44:51.551Z,8.14
2022-10-20T04:47:18.027Z,8.11
2022-10-20T04:49:44.469Z,8.17
2022-10-20T04:52:10.994Z,7.99
2022-10-20T04:54:37.503Z,7.88
2022-10-20T04:57:05.962Z,7.82
2022-10-20T04:59:32.805Z,7.82
2022-10-20T05:01:59.411Z,7.87
2022-10-20T05:04:26.087Z,7.94
2022-10-20T05:06:52.543Z,7.99
2022-10-20T05:09:19.509Z,8.04
2022-10-20T05:11:46.306Z,8.07
2022-10-20T05:14:13.000Z,8.09
2022-10-20T05:16:39.571Z,8.08
2022-10-20T05:19:06.024Z,8.09
2022-10-20T05:21:33.307Z,8.13
2022-10-20T05:24:03.488Z,8.15
2022-10-20T05:26:36.419Z,8.17
2022-10-20T05:29:07.093Z,8.19
2022-10-20T05:31:42.227Z,8.18
2022-10-20T05:34:10.629Z,8.17
2022-10-20T05:36:37.319Z,8.16
2022-10-20T05:39:04.152Z,8.15
2022-10-20T05:41:36.456Z,8.22
2022-10-20T05:44:10.802Z,8.17
2022-10-20T05:46:41.022Z,8.26
2022-10-20T05:49:12.511Z,8.31
2022-10-20T05:51:39.038Z,8.34
2022-10-20T05:54:05.505Z,8.40
2022-10-20T05:56:33.443Z,8.35
2022-10-20T05:58:59.909Z,8.30
2022-10-20T06:01:39.756Z,8.34
2022-10-20T06:04:10.731Z,8.22
2022-10-20T06:06:37.167Z,8.18
2022-10-20T06:09:07.554Z,8.15
2022-10-20T06:11:38.391Z,8.21
2022-10-20T06:14:06.106Z,8.21
2022-10-20T06:16:32.759Z,8.31
2022-10-20T06:19:00.090Z,8.35
2022-10-20T06:21:31.037Z,8.20
2022-10-20T06:24:04.509Z,8.18
2022-10-20T06:26:36.534Z,8.22
2022-10-20T06:29:10.882Z,8.25
2022-10-20T06:31:50.053Z,8.23
2022-10-20T06:34:27.372Z,8.14
2022-10-20T06:36:53.945Z,8.24
2022-10-20T06:39:24.284Z,8.25
2022-10-20T06:41:54.138Z,8.26
2022-10-20T06:44:23.928Z,8.26
2022-10-20T06:46:54.489Z,8.37
2022-10-20T06:49:21.352Z,8.42
2022-10-20T06:51:47.868Z,8.44
2022-10-20T06:54:14.503Z,8.66
2022-10-20T06:56:41.189Z,8.63
2022-10-20T06:59:07.711Z,8.69
2022-10-20T07:01:38.225Z,8.75
2022-10-20T07:04:14.948Z,8.81
2022-10-20T07:06:43.884Z,8.66
2022-10-20T07:09:19.430Z,8.96
2022-10-20T07:11:50.010Z,9.05
2022-10-20T07:14:16.497Z,9.20
2022-10-20T07:16:43.008Z,9.19
2022-10-20T07:19:09.821Z,9.34
2022-10-20T07:21:39.173Z,9.44
2022-10-20T07:24:09.454Z,9.52
2022-10-20T07:26:39.440Z,9.62
2022-10-20T07:29:06.402Z,9.64
2022-10-20T07:31:45.636Z,9.70
2022-10-20T07:34:30.467Z,9.65
2022-10-20T07:36:57.938Z,9.70
2022-10-20T07:39:24.994Z,9.84
2022-10-20T07:41:51.848Z,9.91
2022-10-20T07:44:18.768Z,9.82
2022-10-20T07:46:45.466Z,9.82
2022-10-20T07:51:58.584Z,9.83
2022-10-20T07:54:25.215Z,9.94
2022-10-20T07:56:51.787Z,10.03
2022-10-20T07:59:18.295Z,10.00
2022-10-20T08:01:44.895Z,9.99
2022-10-20T08:04:11.757Z,10.07
2022-10-20T08:06:39.225Z,10.23
2022-10-20T08:09:07.082Z,10.10
2022-10-20T08:11:33.799Z,10.12
2022-10-20T08:14:00.285Z,10.09
2022-10-20T08:16:26.880Z,10.10
2022-10-20T08:19:02.808Z,10.16
2022-10-20T08:21:29.324Z,10.26
2022-10-20T08:23:56.028Z,10.22
2022-10-20T08:26:25.712Z,10.35
2022-10-20T08:28:54.774Z,10.35
2022-10-20T08:31:22.180Z,10.35
2022-10-20T08:33:52.687Z,10.44
2022-10-20T08:36:21.135Z,10.46
2022-10-20T08:38:48.558Z,10.53
2022-10-20T08:41:21.442Z,10.59
2022-10-20T08:43:51.815Z,10.63
2022-10-20T08:46:25.380Z,10.64
2022-10-20T08:48:52.765Z,10.77
2022-10-20T08:51:24.592Z,10.85
2022-10-20T08:53:57.118Z,10.85
2022-10-20T08:56:27.421Z,10.97
2022-10-20T08:58:54.495Z,11.05
2022-10-20T09:01:24.573Z,11.11
2022-10-20T09:04:19.885Z,11.10
2022-10-20T09:06:54.939Z,11.30
2022-10-20T09:09:24.280Z,11.23
2022-10-20T09:11:55.475Z,11.40
2022-10-20T09:14:21.935Z,11.29
2022-10-20T09:16:59.793Z,11.41
2022-10-20T09:19:28.594Z,11.45
2022-10-20T09:22:01.650Z,11.48
2022-10-20T09:24:30.625Z,11.57
2022-10-20T09:27:18.564Z,11.62
2022-10-20T09:29:45.478Z,11.68
2022-10-20T09:32:52.447Z,11.73
2022-10-20T09:35:15.001Z,11.63
2022-10-20T09:37:49.592Z,11.78
2022-10-20T09:40:18.244Z,11.87
2022-10-20T09:43:03.070Z,11.82
2022-10-20T09:45:35.090Z,11.87
2022-10-20T09:48:21.486Z,11.92
2022-10-20T09:50:56.962Z,11.88
2022-10-20T09:53:32.311Z,11.78
2022-10-20T09:55:59.202Z,11.86
2022-10-20T09:58:37.863Z,11.85
2022-10-20T10:01:14.232Z,11.94
2022-10-20T10:03:47.645Z,11.95
2022-10-20T10:06:38.675Z,11.66
2022-10-20T10:09:34.936Z,11.69
2022-10-20T10:12:10.311Z,11.85
2022-10-20T10:14:36.922Z,11.89
2022-10-20T10:17:03.791Z,11.90
2022-10-20T10:19:33.963Z,11.86
2022-10-20T10:22:03.610Z,11.91
2022-10-20T10:24:43.320Z,12.02
2022-10-20T10:27:32.581Z,12.04
2022-10-20T10:30:31.676Z,11.95
2022-10-20T10:32:58.314Z,11.97
2022-10-20T10:35:32.319Z,11.97
2022-10-20T10:38:00.782Z,11.99
2022-10-20T10:41:00.211Z,12.00
2022-10-20T10:43:47.891Z,11.97
2022-10-20T10:49:30.480Z,12.06
2022-10-20T10:52:20.065Z,11.91
2022-10-20T10:54:57.996Z,11.93
2022-10-20T10:57:32.215Z,11.99
2022-10-20T11:00:17.229Z,12.08
2022-10-20T11:03:39.807Z,12.09
2022-10-20T11:06:36.905Z,12.15
2022-10-20T11:09:20.601Z,12.01
2022-10-20T11:12:29.655Z,12.07
2022-10-20T11:15:16.107Z,12.12
2022-10-20T11:18:07.361Z,12.06
2022-10-20T11:20:59.848Z,12.07
2022-10-20T11:24:08.254Z,12.05
2022-10-20T11:26:52.103Z,12.05
2022-10-20T11:29:45.252Z,11.98
2022-10-20T11:32:14.600Z,12.05
2022-10-20T11:34:58.742Z,12.18
2022-10-20T11:37:31.365Z,12.13
2022-10-20T11:40:07.632Z,12.24
2022-10-20T11:43:11.048Z,12.00
2022-10-20T11:45:57.367Z,12.03
2022-10-20T11:48:38.622Z,12.05
2022-10-20T11:51:59.541Z,12.08
2022-10-20T11:54:43.594Z,11.93
2022-10-20T11:57:29.339Z,12.01
2022-10-20T12:00:44.404Z,11.88
2022-10-20T12:03:16.808Z,12.10
2022-10-20T12:06:14.441Z,12.14
2022-10-20T12:09:03.743Z,11.82
2022-10-20T12:11:54.666Z,12.05
2022-10-20T12:14:30.261Z,12.26
2022-10-20T12:17:12.846Z,12.25
2022-10-20T12:19:40.344Z,12.36
2022-10-20T12:22:29.221Z,12.42
2022-10-20T12:24:55.573Z,12.58
2022-10-20T12:27:29.945Z,12.72
2022-10-20T12:30:05.364Z,12.76
2022-10-20T12:32:52.394Z,12.74
2022-10-20T12:35:18.890Z,12.47
2022-10-20T12:37:58.017Z,12.72
2022-10-20T12:40:51.683Z,12.63
2022-10-20T12:43:33.390Z,12.78
2022-10-20T12:46:09.971Z,12.84
2022-10-20T12:48:56.401Z,12.87
2022-10-20T12:51:52.023Z,12.80
2022-10-20T12:54:34.548Z,12.76
2022-10-20T12:57:23.484Z,12.81
2022-10-20T12:59:49.976Z,12.85
2022-10-20T13:02:23.022Z,12.79
2022-10-20T13:05:00.305Z,12.66
2022-10-20T13:07:48.530Z,12.65
2022-10-20T13:10:30.039Z,12.69
2022-10-20T13:13:02.479Z,12.75
2022-10-20T13:15:42.856Z,12.71
2022-10-20T13:18:19.849Z,12.64
2022-10-20T13:20:59.932Z,12.70
2022-10-20T13:23:36.603Z,12.63
2022-10-20T13:26:44.442Z,12.61
2022-10-20T13:29:34.540Z,12.53
2022-10-20T13:32:26.184Z,12.41
2022-10-20T13:35:20.726Z,12.49
2022-10-20T13:38:18.533Z,12.46
2022-10-20T13:41:18.917Z,12.37
2022-10-20T13:44:11.733Z,12.38
2022-10-20T13:47:10.327Z,12.54
2022-10-20T13:49:58.898Z,12.63
2022-10-20T13:52:31.195Z,12.75
2022-10-20T13:55:00.656Z,12.85
2022-10-20T13:57:31.385Z,12.96
2022-10-20T14:00:26.850Z,13.00
2022-10-20T14:03:03.263Z,12.96
2022-10-20T14:05:38.164Z,12.96
2022-10-20T14:08:14.974Z,12.94
2022-10-20T14:11:11.047Z,12.88
2022-10-20T14:13:37.978Z,12.97
2022-10-20T14:16:15.238Z,12.99
2022-10-20T14:18:41.710Z,13.02
2022-10-20T14:21:19.549Z,12.99
2022-10-20T14:23:50.649Z,13.07
2022-10-20T14:26:22.686Z,13.07
2022-10-20T14:28:51.911Z,13.11
2022-10-20T14:31:23.345Z,13.09
2022-10-20T14:33:52.534Z,13.17
2022-10-20T14:36:25.248Z,13.14
2022-10-20T14:38:55.911Z,13.13
2022-10-20T14:41:29.166Z,13.05
2022-10-20T14:44:06.449Z,13.04
2022-10-20T14:46:46.917Z,13.06
2022-10-20T14:49:29.286Z,12.96
2022-10-20T14:52:01.221Z,12.97
2022-10-20T14:54:36.965Z,12.97
2022-10-20T14:57:09.607Z,12.90
2022-10-20T14:59:50.639Z,12.86
2022-10-20T15:02:27.187Z,12.84
2022-10-20T15:04:53.603Z,12.42
2022-10-20T15:07:34.873Z,12.53
2022-10-20T15:10:15.237Z,12.55
2022-10-20T15:12:46.118Z,12.52
2022-10-20T15:15:12.465Z,12.53
2022-10-20T15:17:47.913Z,12.57
2022-10-20T15:20:37.339Z,12.56
2022-10-20T15:23:15.144Z,12.60
2022-10-20T15:26:06.183Z,12.63
2022-10-20T15:28:44.821Z,12.52
2022-10-20T15:31:13.955Z,12.51
2022-10-20T15:33:41.366Z,12.44
2022-10-20T15:36:21.215Z,12.44
2022-10-20T15:38:51.200Z,12.41
2022-10-20T15:41:22.996Z,12.44
2022-10-20T15:43:49.481Z,12.38
2022-10-20T15:46:18.050Z,12.41
2022-10-20T15:48:44.928Z,12.42
2022-10-20T15:51:22.399Z,12.24
2022-10-20T15:53:49.841Z,12.29
2022-10-20T15:56:19.679Z,12.24
2022-10-20T15:58:47.206Z,12.23
2022-10-20T16:01:16.742Z,12.27
2022-10-20T16:03:44.444Z,12.29
2022-10-20T16:06:15.824Z,12.27
2022-10-20T16:08:44.305Z,12.13
2022-10-20T16:11:14.799Z,12.11
2022-10-20T16:13:42.189Z,12.12
2022-10-20T16:16:16.980Z,12.15
2022-10-20T16:18:43.563Z,12.19
2022-10-20T16:21:10.216Z,12.14
2022-10-20T16:23:42.126Z,12.15
2022-10-20T16:26:13.579Z,12.04
2022-10-20T16:28:40.277Z,11.96
2022-10-20T16:31:14.032Z,11.84
2022-10-20T16:33:41.131Z,11.74
2022-10-20T16:36:11.483Z,11.58
2022-10-20T16:38:40.209Z,11.50
2022-10-20T16:41:11.837Z,11.43
2022-10-20T16:43:44.286Z,11.37
2022-10-20T16:46:13.492Z,11.42
2022-10-20T16:48:42.580Z,11.49
2022-10-20T16:51:12.212Z,11.50
2022-10-20T16:53:39.153Z,11.41
2022-10-20T16:56:06.961Z,11.40
2022-10-20T16:58:33.743Z,11.30
2022-10-20T17:01:09.593Z,11.33
2022-10-20T17:03:40.885Z,11.25
2022-10-20T17:06:08.606Z,11.25
2022-10-20T17:08:37.185Z,11.20
2022-10-20T17:11:07.053Z,11.08
2022-10-20T17:13:35.592Z,11.05
2022-10-20T17:16:09.739Z,10.97
2022-10-20T17:18:36.737Z,11.05
2022-10-20T17:21:03.627Z,11.01
2022-10-20T17:23:41.792Z,10.99
2022-10-20T17:26:15.150Z,10.94
2022-10-20T17:28:41.911Z,10.87
2022-10-20T17:31:13.234Z,10.74
2022-10-20T17:33:40.756Z,10.67
2022-10-20T17:36:08.664Z,10.58
2022-10-20T17:38:35.888Z,10.65
2022-10-20T17:41:04.642Z,10.66
2022-10-20T17:43:31.347Z,10.58
2022-10-20T17:46:04.980Z,10.51
2022-10-20T17:48:32.095Z,10.44
2022-10-20T17:51:24.236Z,10.19
2022-10-20T17:53:53.183Z,10.27
2022-10-20T17:56:31.215Z,10.34
2022-10-20T17:59:02.837Z,10.40
2022-10-20T18:01:36.384Z,10.34
2022-10-20T18:04:08.210Z,10.37
2022-10-20T18:06:36.324Z,10.35
2022-10-20T18:09:11.862Z,10.29
2022-10-20T18:11:43.250Z,10.32
2022-10-20T18:14:09.796Z,10.28
2022-10-20T18:16:39.392Z,10.28
2022-10-20T18:19:07.610Z,10.40
2022-10-20T18:21:34.320Z,10.48
2022-10-20T18:24:05.748Z,10.46
2022-10-20T18:26:36.291Z,10.38
2022-10-20T18:29:06.769Z,10.32
2022-10-20T18:31:36.195Z,10.33
2022-10-20T18:34:08.995Z,10.38
2022-10-20T18:36:40.417Z,10.45
2022-10-20T18:39:10.666Z,10.51
2022-10-20T18:41:40.893Z,10.56
2022-10-20T18:44:12.448Z,10.58
2022-10-20T18:46:39.884Z,10.70
2022-10-20T18:49:08.548Z,10.68
2022-10-20T18:51:36.442Z,10.59
2022-10-20T18:54:05.388Z,10.63
2022-10-20T18:56:31.933Z,10.76
2022-10-20T18:59:03.287Z,10.77
2022-10-20T19:01:33.645Z,10.86
2022-10-20T19:04:01.279Z,10.95
2022-10-20T19:06:43.694Z,10.96
2022-10-20T19:09:14.724Z,11.03
2022-10-20T19:11:43.285Z,11.08
2022-10-20T19:14:11.393Z,11.07
2022-10-20T19:16:39.376Z,11.03
2022-10-20T19:19:08.058Z,11.03
2022-10-20T19:21:36.117Z,11.09
2022-10-20T19:24:11.517Z,10.94
2022-10-20T19:26:43.689Z,10.87
2022-10-20T19:29:15.485Z,10.91
2022-10-20T19:31:52.710Z,10.97
2022-10-20T19:34:30.216Z,10.91
2022-10-20T19:36:57.367Z,10.94
2022-10-20T19:39:34.783Z,10.84
2022-10-20T19:42:04.071Z,10.86
2022-10-20T19:44:31.295Z,10.85
2022-10-20T19:46:57.929Z,10.87
2022-10-20T19:49:25.341Z,10.93
2022-10-20T19:51:52.422Z,10.82
2022-10-20T19:54:19.391Z,10.65
2022-10-20T19:56:46.137Z,10.63
2022-10-20T19:59:12.816Z,10.60
2022-10-20T20:01:39.640Z,10.66
2022-10-20T20:04:06.586Z,10.68
2022-10-20T20:06:35.026Z,10.67
2022-10-20T20:09:07.082Z,10.62
2022-10-20T20:11:36.351Z,10.59
2022-10-20T20:14:08.655Z,10.60
2022-10-20T20:16:35.276Z,10.62
2022-10-20T20:19:02.142Z,10.52
2022-10-20T20:21:28.834Z,10.56
2022-10-20T20:24:00.545Z,10.39
2022-10-20T20:26:33.595Z,10.26
2022-10-20T20:29:00.629Z,10.22
2022-10-20T20:31:27.821Z,10.15
2022-10-20T20:33:56.593Z,10.16
2022-10-20T20:36:26.580Z,10.22
2022-10-20T20:38:56.654Z,10.25
2022-10-20T20:41:26.531Z,10.32
2022-10-20T20:43:53.327Z,10.33
2022-10-20T20:46:23.883Z,10.36
2022-10-20T20:48:51.142Z,10.45
2022-10-20T20:51:17.773Z,10.46
2022-10-20T20:53:44.311Z,10.45
2022-10-20T20:56:15.477Z,10.40
2022-10-20T20:58:45.278Z,10.48
2022-10-20T21:01:14.489Z,10.48
2022-10-20T21:03:41.635Z,10.43
2022-10-20T21:06:15.715Z,10.40
2022-10-20T21:08:47.283Z,10.32
2022-10-20T21:11:21.330Z,10.20
2022-10-20T21:13:50.174Z,10.32
2022-10-20T21:16:25.376Z,10.42
2022-10-20T21:18:55.434Z,10.52
2022-10-20T21:21:25.899Z,10.65
2022-10-20T21:23:53.931Z,10.79
2022-10-20T21:26:22.258Z,10.85
2022-10-20T21:28:49.832Z,10.92
2022-10-20T21:31:20.615Z,10.90
2022-10-20T21:33:51.594Z,10.85
2022-10-20T21:36:20.709Z,10.94
2022-10-20T21:38:47.842Z,11.07
2022-10-20T21:41:25.343Z,11.16
2022-10-20T21:43:56.731Z,11.21
2022-10-20T21:46:30.421Z,11.29
2022-10-20T21:49:07.285Z,11.32
2022-10-20T21:51:40.646Z,11.34
2022-10-20T21:54:12.584Z,11.39
2022-10-20T21:56:41.796Z,11.46
2022-10-20T21:59:17.749Z,11.52
2022-10-20T22:01:44.760Z,11.62
2022-10-20T22:04:11.513Z,11.70
2022-10-20T22:06:38.711Z,11.79
2022-10-20T22:09:07.077Z,11.75
2022-10-20T22:11:39.563Z,11.74
2022-10-20T22:14:06.858Z,11.81
2022-10-20T22:16:40.051Z,11.87
2022-10-20T22:19:15.711Z,11.89
2022-10-20T22:21:45.626Z,11.84
2022-10-20T22:24:12.822Z,11.86
2022-10-20T22:26:40.624Z,11.94
2022-10-20T22:29:09.602Z,12.12
2022-10-20T22:31:38.764Z,12.15
2022-10-20T22:34:06.246Z,12.18
2022-10-20T22:36:32.906Z,12.16
2022-10-20T22:38:59.435Z,12.22
2022-10-20T22:41:26.040Z,12.22
2022-10-20T22:43:53.187Z,12.24
2022-10-20T22:46:19.993Z,12.20
2022-10-20T22:48:46.547Z,12.28
2022-10-20T22:51:14.894Z,12.35
2022-10-20T22:53:42.811Z,12.38
2022-10-20T22:56:16.941Z,12.38
2022-10-20T22:58:44.083Z,12.42
2022-10-20T23:01:15.388Z,12.45
2022-10-20T23:03:42.399Z,12.51
2022-10-20T23:06:18.198Z,12.52
2022-10-20T23:08:52.123Z,12.53
2022-10-20T23:11:20.122Z,12.49
2022-10-20T23:13:47.297Z,12.53
2022-10-20T23:16:15.054Z,12.52
2022-10-20T23:18:41.691Z,12.52
2022-10-20T23:21:08.452Z,12.52
2022-10-20T23:23:37.314Z,12.57
2022-10-20T23:26:08.463Z,12.53
2022-10-20T23:28:36.569Z,12.60
2022-10-20T23:31:19.420Z,12.60
2022-10-20T23:33:48.378Z,12.58
2022-10-20T23:36:16.586Z,12.59
2022-10-20T23:38:43.571Z,12.63
2022-10-20T23:41:10.195Z,12.64
2022-10-20T23:46:08.299Z,12.71
2022-10-20T23:48:35.958Z,12.73
2022-10-20T23:51:02.482Z,12.71
2022-10-20T23:53:28.957Z,12.68
2022-10-20T23:55:55.538Z,12.73
2022-10-20T23:58:23.087Z,12.75
